sensor_id;sensor_type;location;lat;lon;timestamp;temperature;humidity
29571;DHT22;16814;52.118;11.436;2023-08-30T00:00:18;14.90;99.90
29571;DHT22;16814;52.118;11.436;2023-08-30T00:02:44;14.60;99.90
29571;DHT22;16814;52.118;11.436;2023-08-30T00:05:11;14.40;99.90
29571;DHT22;16814;52.118;11.436;2023-08-30T00:07:37;14.40;99.90
29571;DHT22;16814;52.118;11.436;2023-08-30T00:10:02;14.70;99.90
29571;DHT22;16814;52.118;11.436;2023-08-30T00:12:29;14.80;99.90
29571;DHT22;16814;52.118;11.436;2023-08-30T00:14:55;15.00;99.90
29571;DHT22;16814;52.118;11.436;2023-08-30T00:17:21;15.10;99.90
29571;DHT22;16814;52.118;11.436;2023-08-30T00:19:47;15.10;99.90
29571;DHT22;16814;52.118;11.436;2023-08-30T00:22:13;15.10;99.90
29571;DHT22;16814;52.118;11.436;2023-08-30T00:24:39;15.00;99.90
29571;DHT22;16814;52.118;11.436;2023-08-30T00:27:05;15.10;99.90
29571;DHT22;16814;52.118;11.436;2023-08-30T00:29:30;15.00;99.90
29571;DHT22;16814;52.118;11.436;2023-08-30T00:31:56;14.70;99.90
29571;DHT22;16814;52.118;11.436;2023-08-30T00:34:22;14.90;99.90
29571;DHT22;16814;52.118;11.436;2023-08-30T00:36:47;14.80;99.90
29571;DHT22;16814;52.118;11.436;2023-08-30T00:39:13;14.70;99.90
29571;DHT22;16814;52.118;11.436;2023-08-30T00:41:39;14.80;99.90
29571;DHT22;16814;52.118;11.436;2023-08-30T00:44:04;14.80;99.90
29571;DHT22;16814;52.118;11.436;2023-08-30T00:46:31;14.70;99.90
29571;DHT22;16814;52.118;11.436;2023-08-30T00:48:57;14.50;99.90
29571;DHT22;16814;52.118;11.436;2023-08-30T00:51:23;14.50;99.90
29571;DHT22;16814;52.118;11.436;2023-08-30T00:53:49;14.60;99.90
29571;DHT22;16814;52.118;11.436;2023-08-30T00:56:15;14.70;99.90
29571;DHT22;16814;52.118;11.436;2023-08-30T00:58:41;14.70;99.90
29571;DHT22;16814;52.118;11.436;2023-08-30T01:01:07;14.60;99.90
29571;DHT22;16814;52.118;11.436;2023-08-30T01:03:34;14.60;99.90
29571;DHT22;16814;52.118;11.436;2023-08-30T01:06:00;14.50;99.90
29571;DHT22;16814;52.118;11.436;2023-08-30T01:08:26;14.60;99.90
29571;DHT22;16814;52.118;11.436;2023-08-30T01:13:25;14.90;99.90
29571;DHT22;16814;52.118;11.436;2023-08-30T01:15:54;14.70;99.90
29571;DHT22;16814;52.118;11.436;2023-08-30T01:18:22;14.70;99.90
29571;DHT22;16814;52.118;11.436;2023-08-30T01:20:52;14.60;99.90
29571;DHT22;16814;52.118;11.436;2023-08-30T01:26:29;14.20;99.90
29571;DHT22;16814;52.118;11.436;2023-08-30T01:29:00;13.90;99.90
29571;DHT22;16814;52.118;11.436;2023-08-30T01:31:28;13.70;99.90
29571;DHT22;16814;52.118;11.436;2023-08-30T01:33:55;13.50;99.90
29571;DHT22;16814;52.118;11.436;2023-08-30T01:36:22;13.50;99.90
29571;DHT22;16814;52.118;11.436;2023-08-30T01:38:48;13.50;99.90
29571;DHT22;16814;52.118;11.436;2023-08-30T01:41:15;13.70;99.90
29571;DHT22;16814;52.118;11.436;2023-08-30T01:43:41;13.80;99.90
29571;DHT22;16814;52.118;11.436;2023-08-30T01:46:08;13.90;99.90
29571;DHT22;16814;52.118;11.436;2023-08-30T01:48:35;14.10;99.90
29571;DHT22;16814;52.118;11.436;2023-08-30T01:51:01;14.10;99.90
29571;DHT22;16814;52.118;11.436;2023-08-30T01:53:29;14.10;99.90
29571;DHT22;16814;52.118;11.436;2023-08-30T01:55:56;14.10;99.90
29571;DHT22;16814;52.118;11.436;2023-08-30T01:58:21;14.20;99.90
29571;DHT22;16814;52.118;11.436;2023-08-30T02:00:47;14.10;99.90
29571;DHT22;16814;52.118;11.436;2023-08-30T02:03:13;14.00;99.90
29571;DHT22;16814;52.118;11.436;2023-08-30T02:06:03;13.80;99.90
29571;DHT22;16814;52.118;11.436;2023-08-30T02:08:41;13.90;99.90
29571;DHT22;16814;52.118;11.436;2023-08-30T02:11:11;13.80;99.90
29571;DHT22;16814;52.118;11.436;2023-08-30T02:13:39;13.70;99.90
29571;DHT22;16814;52.118;11.436;2023-08-30T02:16:08;13.70;99.90
29571;DHT22;16814;52.118;11.436;2023-08-30T02:18:35;13.60;99.90
29571;DHT22;16814;52.118;11.436;2023-08-30T02:21:02;13.50;99.90
29571;DHT22;16814;52.118;11.436;2023-08-30T02:23:28;13.60;99.90
29571;DHT22;16814;52.118;11.436;2023-08-30T02:25:54;13.50;99.90
29571;DHT22;16814;52.118;11.436;2023-08-30T02:28:20;13.10;99.90
29571;DHT22;16814;52.118;11.436;2023-08-30T02:30:46;12.80;99.90
29571;DHT22;16814;52.118;11.436;2023-08-30T02:33:12;12.80;99.90
29571;DHT22;16814;52.118;11.436;2023-08-30T02:35:37;12.90;99.90
29571;DHT22;16814;52.118;11.436;2023-08-30T02:38:03;13.20;99.90
29571;DHT22;16814;52.118;11.436;2023-08-30T02:40:30;13.30;99.90
29571;DHT22;16814;52.118;11.436;2023-08-30T02:42:57;13.60;99.90
29571;DHT22;16814;52.118;11.436;2023-08-30T02:45:22;13.70;99.90
29571;DHT22;16814;52.118;11.436;2023-08-30T02:47:48;13.70;99.90
29571;DHT22;16814;52.118;11.436;2023-08-30T02:50:14;13.70;99.90
29571;DHT22;16814;52.118;11.436;2023-08-30T02:52:40;13.80;99.90
29571;DHT22;16814;52.118;11.436;2023-08-30T02:55:06;13.90;99.90
29571;DHT22;16814;52.118;11.436;2023-08-30T02:57:32;14.00;99.90
29571;DHT22;16814;52.118;11.436;2023-08-30T02:59:57;14.00;99.90
29571;DHT22;16814;52.118;11.436;2023-08-30T03:02:23;13.80;99.90
29571;DHT22;16814;52.118;11.436;2023-08-30T03:04:48;13.70;99.90
29571;DHT22;16814;52.118;11.436;2023-08-30T03:07:14;13.60;99.90
29571;DHT22;16814;52.118;11.436;2023-08-30T03:09:39;13.70;99.90
29571;DHT22;16814;52.118;11.436;2023-08-30T03:12:06;13.80;99.90
29571;DHT22;16814;52.118;11.436;2023-08-30T03:14:32;13.80;99.90
29571;DHT22;16814;52.118;11.436;2023-08-30T03:16:57;13.70;99.90
29571;DHT22;16814;52.118;11.436;2023-08-30T03:19:23;13.80;99.90
29571;DHT22;16814;52.118;11.436;2023-08-30T03:21:49;13.70;99.90
29571;DHT22;16814;52.118;11.436;2023-08-30T03:24:15;13.80;99.90
29571;DHT22;16814;52.118;11.436;2023-08-30T03:26:43;13.80;99.90
29571;DHT22;16814;52.118;11.436;2023-08-30T03:29:08;13.80;99.90
29571;DHT22;16814;52.118;11.436;2023-08-30T03:31:34;13.80;99.90
29571;DHT22;16814;52.118;11.436;2023-08-30T03:34:00;13.80;99.90
29571;DHT22;16814;52.118;11.436;2023-08-30T03:36:25;13.70;99.90
29571;DHT22;16814;52.118;11.436;2023-08-30T03:38:51;13.70;99.90
29571;DHT22;16814;52.118;11.436;2023-08-30T03:41:17;13.50;99.90
29571;DHT22;16814;52.118;11.436;2023-08-30T03:43:43;13.40;99.90
29571;DHT22;16814;52.118;11.436;2023-08-30T03:46:09;13.30;99.90
29571;DHT22;16814;52.118;11.436;2023-08-30T03:48:36;13.40;99.90
29571;DHT22;16814;52.118;11.436;2023-08-30T03:51:02;13.70;99.90
29571;DHT22;16814;52.118;11.436;2023-08-30T03:53:28;13.70;99.90
29571;DHT22;16814;52.118;11.436;2023-08-30T03:55:55;13.70;99.90
29571;DHT22;16814;52.118;11.436;2023-08-30T03:58:21;13.70;99.90
29571;DHT22;16814;52.118;11.436;2023-08-30T04:00:47;13.70;99.90
29571;DHT22;16814;52.118;11.436;2023-08-30T04:03:14;13.80;99.90
29571;DHT22;16814;52.118;11.436;2023-08-30T04:05:40;13.80;99.90
29571;DHT22;16814;52.118;11.436;2023-08-30T04:08:06;13.70;99.90
29571;DHT22;16814;52.118;11.436;2023-08-30T04:10:39;13.70;99.90
29571;DHT22;16814;52.118;11.436;2023-08-30T04:13:06;13.70;99.90
29571;DHT22;16814;52.118;11.436;2023-08-30T04:15:35;13.60;99.90
29571;DHT22;16814;52.118;11.436;2023-08-30T04:18:02;13.60;99.90
29571;DHT22;16814;52.118;11.436;2023-08-30T04:20:28;13.50;99.90
29571;DHT22;16814;52.118;11.436;2023-08-30T04:22:54;13.40;99.90
29571;DHT22;16814;52.118;11.436;2023-08-30T04:25:21;13.30;99.90
29571;DHT22;16814;52.118;11.436;2023-08-30T04:27:46;13.20;99.90
29571;DHT22;16814;52.118;11.436;2023-08-30T04:30:12;13.00;99.90
29571;DHT22;16814;52.118;11.436;2023-08-30T04:32:38;12.90;99.90
29571;DHT22;16814;52.118;11.436;2023-08-30T04:35:04;12.80;99.90
29571;DHT22;16814;52.118;11.436;2023-08-30T04:37:30;12.80;99.90
29571;DHT22;16814;52.118;11.436;2023-08-30T04:39:57;12.70;99.90
29571;DHT22;16814;52.118;11.436;2023-08-30T04:42:22;12.70;99.90
29571;DHT22;16814;52.118;11.436;2023-08-30T04:44:48;12.80;99.90
29571;DHT22;16814;52.118;11.436;2023-08-30T04:47:13;12.70;99.90
29571;DHT22;16814;52.118;11.436;2023-08-30T04:49:39;12.60;99.90
29571;DHT22;16814;52.118;11.436;2023-08-30T04:52:05;12.70;99.90
29571;DHT22;16814;52.118;11.436;2023-08-30T04:54:31;12.60;99.90
29571;DHT22;16814;52.118;11.436;2023-08-30T04:56:56;12.50;99.90
29571;DHT22;16814;52.118;11.436;2023-08-30T04:59:22;12.50;99.90
29571;DHT22;16814;52.118;11.436;2023-08-30T05:01:47;12.60;99.90
29571;DHT22;16814;52.118;11.436;2023-08-30T05:04:13;12.70;99.90
29571;DHT22;16814;52.118;11.436;2023-08-30T05:06:38;12.80;99.90
29571;DHT22;16814;52.118;11.436;2023-08-30T05:09:04;12.70;99.90
29571;DHT22;16814;52.118;11.436;2023-08-30T05:11:29;12.70;99.90
29571;DHT22;16814;52.118;11.436;2023-08-30T05:13:55;12.60;99.90
29571;DHT22;16814;52.118;11.436;2023-08-30T05:16:21;12.60;99.90
29571;DHT22;16814;52.118;11.436;2023-08-30T05:18:46;12.50;99.90
29571;DHT22;16814;52.118;11.436;2023-08-30T05:21:15;12.40;99.90
29571;DHT22;16814;52.118;11.436;2023-08-30T05:23:40;12.50;99.90
29571;DHT22;16814;52.118;11.436;2023-08-30T05:26:08;12.50;99.90
29571;DHT22;16814;52.118;11.436;2023-08-30T05:28:34;12.40;99.90
29571;DHT22;16814;52.118;11.436;2023-08-30T05:30:59;12.50;99.90
29571;DHT22;16814;52.118;11.436;2023-08-30T05:33:25;12.70;99.90
29571;DHT22;16814;52.118;11.436;2023-08-30T05:35:51;12.90;99.90
29571;DHT22;16814;52.118;11.436;2023-08-30T05:38:16;13.00;99.90
29571;DHT22;16814;52.118;11.436;2023-08-30T05:40:42;13.10;99.90
29571;DHT22;16814;52.118;11.436;2023-08-30T05:43:10;13.30;99.90
29571;DHT22;16814;52.118;11.436;2023-08-30T05:45:36;13.30;99.90
29571;DHT22;16814;52.118;11.436;2023-08-30T05:48:02;13.40;99.90
29571;DHT22;16814;52.118;11.436;2023-08-30T05:50:28;13.40;99.90
29571;DHT22;16814;52.118;11.436;2023-08-30T05:52:54;13.40;99.90
29571;DHT22;16814;52.118;11.436;2023-08-30T05:55:19;13.60;99.90
29571;DHT22;16814;52.118;11.436;2023-08-30T05:57:45;13.60;99.90
29571;DHT22;16814;52.118;11.436;2023-08-30T06:00:11;13.70;99.90
29571;DHT22;16814;52.118;11.436;2023-08-30T06:02:38;13.80;99.90
29571;DHT22;16814;52.118;11.436;2023-08-30T06:05:04;13.90;99.90
29571;DHT22;16814;52.118;11.436;2023-08-30T06:07:30;14.00;99.90
29571;DHT22;16814;52.118;11.436;2023-08-30T06:09:55;14.10;99.90
29571;DHT22;16814;52.118;11.436;2023-08-30T06:12:21;14.20;99.90
29571;DHT22;16814;52.118;11.436;2023-08-30T06:14:47;14.30;99.90
29571;DHT22;16814;52.118;11.436;2023-08-30T06:17:18;14.30;99.90
29571;DHT22;16814;52.118;11.436;2023-08-30T06:19:44;14.40;99.90
29571;DHT22;16814;52.118;11.436;2023-08-30T06:22:09;14.50;99.90
29571;DHT22;16814;52.118;11.436;2023-08-30T06:24:35;14.80;99.90
29571;DHT22;16814;52.118;11.436;2023-08-30T06:27:00;14.80;99.90
29571;DHT22;16814;52.118;11.436;2023-08-30T06:29:26;15.10;99.90
29571;DHT22;16814;52.118;11.436;2023-08-30T06:31:52;15.40;99.90
29571;DHT22;16814;52.118;11.436;2023-08-30T06:34:17;15.50;99.90
29571;DHT22;16814;52.118;11.436;2023-08-30T06:36:43;15.70;99.90
29571;DHT22;16814;52.118;11.436;2023-08-30T06:39:08;16.00;99.90
29571;DHT22;16814;52.118;11.436;2023-08-30T06:41:34;16.90;99.90
29571;DHT22;16814;52.118;11.436;2023-08-30T06:43:59;18.20;99.90
29571;DHT22;16814;52.118;11.436;2023-08-30T06:46:25;19.20;99.90
29571;DHT22;16814;52.118;11.436;2023-08-30T06:48:50;19.90;99.90
29571;DHT22;16814;52.118;11.436;2023-08-30T06:51:16;20.60;99.90
29571;DHT22;16814;52.118;11.436;2023-08-30T06:53:41;21.10;99.90
29571;DHT22;16814;52.118;11.436;2023-08-30T06:56:07;21.10;99.90
29571;DHT22;16814;52.118;11.436;2023-08-30T06:58:32;20.90;99.90
29571;DHT22;16814;52.118;11.436;2023-08-30T07:00:58;20.90;99.90
29571;DHT22;16814;52.118;11.436;2023-08-30T07:03:24;21.20;99.90
29571;DHT22;16814;52.118;11.436;2023-08-30T07:05:51;21.60;99.90
29571;DHT22;16814;52.118;11.436;2023-08-30T07:08:17;21.70;99.90
29571;DHT22;16814;52.118;11.436;2023-08-30T07:10:43;21.90;99.90
29571;DHT22;16814;52.118;11.436;2023-08-30T07:13:08;22.00;99.90
29571;DHT22;16814;52.118;11.436;2023-08-30T07:15:38;22.00;99.90
29571;DHT22;16814;52.118;11.436;2023-08-30T07:18:05;22.00;99.90
29571;DHT22;16814;52.118;11.436;2023-08-30T07:20:31;21.80;99.90
29571;DHT22;16814;52.118;11.436;2023-08-30T07:22:57;21.80;99.90
29571;DHT22;16814;52.118;11.436;2023-08-30T07:25:22;21.80;99.90
29571;DHT22;16814;52.118;11.436;2023-08-30T07:27:48;21.80;99.90
29571;DHT22;16814;52.118;11.436;2023-08-30T07:30:13;21.90;99.90
29571;DHT22;16814;52.118;11.436;2023-08-30T07:32:40;21.70;99.90
29571;DHT22;16814;52.118;11.436;2023-08-30T07:35:05;21.70;99.90
29571;DHT22;16814;52.118;11.436;2023-08-30T07:37:31;21.70;99.90
29571;DHT22;16814;52.118;11.436;2023-08-30T07:39:57;21.60;99.90
29571;DHT22;16814;52.118;11.436;2023-08-30T07:42:22;21.70;99.90
29571;DHT22;16814;52.118;11.436;2023-08-30T07:44:48;21.60;99.90
29571;DHT22;16814;52.118;11.436;2023-08-30T07:47:13;21.60;99.90
29571;DHT22;16814;52.118;11.436;2023-08-30T07:49:40;21.50;99.90
29571;DHT22;16814;52.118;11.436;2023-08-30T07:52:05;21.60;99.90
29571;DHT22;16814;52.118;11.436;2023-08-30T07:54:33;21.80;99.90
29571;DHT22;16814;52.118;11.436;2023-08-30T07:56:59;21.70;99.90
29571;DHT22;16814;52.118;11.436;2023-08-30T07:59:24;21.90;99.90
29571;DHT22;16814;52.118;11.436;2023-08-30T08:01:50;22.10;99.90
29571;DHT22;16814;52.118;11.436;2023-08-30T08:04:17;22.30;99.90
29571;DHT22;16814;52.118;11.436;2023-08-30T08:06:42;22.50;99.90
29571;DHT22;16814;52.118;11.436;2023-08-30T08:09:08;22.80;99.90
29571;DHT22;16814;52.118;11.436;2023-08-30T08:11:33;23.00;99.90
29571;DHT22;16814;52.118;11.436;2023-08-30T08:13:59;23.10;99.90
29571;DHT22;16814;52.118;11.436;2023-08-30T08:16:24;23.20;99.90
29571;DHT22;16814;52.118;11.436;2023-08-30T08:18:50;23.40;99.90
29571;DHT22;16814;52.118;11.436;2023-08-30T08:21:17;23.50;99.90
29571;DHT22;16814;52.118;11.436;2023-08-30T08:23:43;23.20;99.90
29571;DHT22;16814;52.118;11.436;2023-08-30T08:26:09;22.90;99.90
29571;DHT22;16814;52.118;11.436;2023-08-30T08:28:34;22.50;99.90
29571;DHT22;16814;52.118;11.436;2023-08-30T08:31:00;21.80;99.90
29571;DHT22;16814;52.118;11.436;2023-08-30T08:33:25;21.80;99.90
29571;DHT22;16814;52.118;11.436;2023-08-30T08:35:51;21.60;99.90
29571;DHT22;16814;52.118;11.436;2023-08-30T08:38:17;21.80;99.90
29571;DHT22;16814;52.118;11.436;2023-08-30T08:40:43;21.60;99.90
29571;DHT22;16814;52.118;11.436;2023-08-30T08:43:11;21.70;99.90
29571;DHT22;16814;52.118;11.436;2023-08-30T08:45:41;22.00;99.90
29571;DHT22;16814;52.118;11.436;2023-08-30T08:48:07;21.90;99.90
29571;DHT22;16814;52.118;11.436;2023-08-30T08:50:33;22.40;99.90
29571;DHT22;16814;52.118;11.436;2023-08-30T08:53:00;22.70;99.90
29571;DHT22;16814;52.118;11.436;2023-08-30T08:55:27;23.30;99.90
29571;DHT22;16814;52.118;11.436;2023-08-30T08:57:56;23.70;99.90
29571;DHT22;16814;52.118;11.436;2023-08-30T09:00:22;23.70;99.90
29571;DHT22;16814;52.118;11.436;2023-08-30T09:02:48;23.80;99.90
29571;DHT22;16814;52.118;11.436;2023-08-30T09:05:18;23.80;99.90
29571;DHT22;16814;52.118;11.436;2023-08-30T09:07:44;23.30;99.90
29571;DHT22;16814;52.118;11.436;2023-08-30T09:10:11;22.90;99.90
29571;DHT22;16814;52.118;11.436;2023-08-30T09:12:36;22.90;99.90
29571;DHT22;16814;52.118;11.436;2023-08-30T09:15:02;22.60;99.90
29571;DHT22;16814;52.118;11.436;2023-08-30T09:17:39;22.60;99.90
29571;DHT22;16814;52.118;11.436;2023-08-30T09:20:09;22.50;99.90
29571;DHT22;16814;52.118;11.436;2023-08-30T09:22:39;22.40;99.90
29571;DHT22;16814;52.118;11.436;2023-08-30T09:25:07;22.30;99.90
29571;DHT22;16814;52.118;11.436;2023-08-30T09:27:34;22.10;99.90
29571;DHT22;16814;52.118;11.436;2023-08-30T09:29:59;22.00;99.90
29571;DHT22;16814;52.118;11.436;2023-08-30T09:32:25;21.70;99.90
29571;DHT22;16814;52.118;11.436;2023-08-30T09:34:51;21.70;99.90
29571;DHT22;16814;52.118;11.436;2023-08-30T09:37:23;21.60;99.90
29571;DHT22;16814;52.118;11.436;2023-08-30T09:39:51;21.50;99.90
29571;DHT22;16814;52.118;11.436;2023-08-30T09:42:17;21.50;99.90
29571;DHT22;16814;52.118;11.436;2023-08-30T09:44:43;21.40;99.90
29571;DHT22;16814;52.118;11.436;2023-08-30T09:47:09;21.40;99.90
29571;DHT22;16814;52.118;11.436;2023-08-30T09:49:43;21.50;99.90
29571;DHT22;16814;52.118;11.436;2023-08-30T09:52:09;21.50;99.90
29571;DHT22;16814;52.118;11.436;2023-08-30T09:54:35;21.40;99.90
29571;DHT22;16814;52.118;11.436;2023-08-30T09:57:04;21.50;99.90
29571;DHT22;16814;52.118;11.436;2023-08-30T09:59:31;21.30;99.90
29571;DHT22;16814;52.118;11.436;2023-08-30T10:01:57;21.50;99.90
29571;DHT22;16814;52.118;11.436;2023-08-30T10:04:23;21.30;99.90
29571;DHT22;16814;52.118;11.436;2023-08-30T10:06:50;21.10;99.90
29571;DHT22;16814;52.118;11.436;2023-08-30T10:09:16;21.40;99.90
29571;DHT22;16814;52.118;11.436;2023-08-30T10:11:45;21.30;99.90
29571;DHT22;16814;52.118;11.436;2023-08-30T10:14:12;21.30;99.90
29571;DHT22;16814;52.118;11.436;2023-08-30T10:19:11;21.70;99.90
29571;DHT22;16814;52.118;11.436;2023-08-30T10:21:39;21.80;99.90
29571;DHT22;16814;52.118;11.436;2023-08-30T10:24:07;21.90;99.90
29571;DHT22;16814;52.118;11.436;2023-08-30T10:26:34;22.30;99.90
29571;DHT22;16814;52.118;11.436;2023-08-30T10:29:01;22.20;99.90
29571;DHT22;16814;52.118;11.436;2023-08-30T10:31:28;22.10;99.90
29571;DHT22;16814;52.118;11.436;2023-08-30T10:33:54;21.80;99.90
29571;DHT22;16814;52.118;11.436;2023-08-30T10:36:24;21.50;99.90
29571;DHT22;16814;52.118;11.436;2023-08-30T10:38:52;21.40;99.90
29571;DHT22;16814;52.118;11.436;2023-08-30T10:41:24;21.30;99.90
29571;DHT22;16814;52.118;11.436;2023-08-30T10:43:51;21.00;99.90
29571;DHT22;16814;52.118;11.436;2023-08-30T10:46:28;21.00;99.90
29571;DHT22;16814;52.118;11.436;2023-08-30T10:48:55;21.00;99.90
29571;DHT22;16814;52.118;11.436;2023-08-30T10:51:35;20.90;99.90
29571;DHT22;16814;52.118;11.436;2023-08-30T10:54:14;21.00;99.90
29571;DHT22;16814;52.118;11.436;2023-08-30T10:56:57;21.00;99.90
29571;DHT22;16814;52.118;11.436;2023-08-30T10:59:25;21.30;99.90
29571;DHT22;16814;52.118;11.436;2023-08-30T11:01:52;21.60;99.90
29571;DHT22;16814;52.118;11.436;2023-08-30T11:04:18;21.90;99.90
29571;DHT22;16814;52.118;11.436;2023-08-30T11:06:45;22.00;99.90
29571;DHT22;16814;52.118;11.436;2023-08-30T11:09:30;21.90;99.90
29571;DHT22;16814;52.118;11.436;2023-08-30T11:11:56;21.60;99.90
29571;DHT22;16814;52.118;11.436;2023-08-30T11:14:22;21.40;99.90
29571;DHT22;16814;52.118;11.436;2023-08-30T11:16:47;21.10;99.90
29571;DHT22;16814;52.118;11.436;2023-08-30T11:19:13;21.10;99.90
29571;DHT22;16814;52.118;11.436;2023-08-30T11:21:44;21.10;99.90
29571;DHT22;16814;52.118;11.436;2023-08-30T11:24:10;21.00;99.90
29571;DHT22;16814;52.118;11.436;2023-08-30T11:26:36;21.00;99.90
29571;DHT22;16814;52.118;11.436;2023-08-30T11:29:06;20.90;99.90
29571;DHT22;16814;52.118;11.436;2023-08-30T11:31:32;20.70;99.90
29571;DHT22;16814;52.118;11.436;2023-08-30T11:33:59;20.70;99.90
29571;DHT22;16814;52.118;11.436;2023-08-30T11:36:35;20.60;99.90
29571;DHT22;16814;52.118;11.436;2023-08-30T11:39:02;20.60;99.90
29571;DHT22;16814;52.118;11.436;2023-08-30T11:41:27;20.40;99.90
29571;DHT22;16814;52.118;11.436;2023-08-30T11:43:54;20.50;99.90
29571;DHT22;16814;52.118;11.436;2023-08-30T11:46:20;20.40;99.90
29571;DHT22;16814;52.118;11.436;2023-08-30T11:48:47;20.40;99.90
29571;DHT22;16814;52.118;11.436;2023-08-30T11:51:14;20.60;99.90
29571;DHT22;16814;52.118;11.436;2023-08-30T11:53:40;20.40;99.90
29571;DHT22;16814;52.118;11.436;2023-08-30T11:56:06;20.50;99.90
29571;DHT22;16814;52.118;11.436;2023-08-30T11:58:33;20.50;99.90
29571;DHT22;16814;52.118;11.436;2023-08-30T12:00:59;20.30;99.90
29571;DHT22;16814;52.118;11.436;2023-08-30T12:03:29;20.30;99.90
29571;DHT22;16814;52.118;11.436;2023-08-30T12:05:56;20.30;99.90
29571;DHT22;16814;52.118;11.436;2023-08-30T12:08:30;20.30;99.90
29571;DHT22;16814;52.118;11.436;2023-08-30T12:10:57;20.60;99.90
29571;DHT22;16814;52.118;11.436;2023-08-30T12:13:25;20.80;99.90
29571;DHT22;16814;52.118;11.436;2023-08-30T12:15:52;21.20;99.90
29571;DHT22;16814;52.118;11.436;2023-08-30T12:18:24;21.40;99.90
29571;DHT22;16814;52.118;11.436;2023-08-30T12:20:57;21.50;99.90
29571;DHT22;16814;52.118;11.436;2023-08-30T12:23:24;21.40;99.90
29571;DHT22;16814;52.118;11.436;2023-08-30T12:26:09;21.50;99.90
29571;DHT22;16814;52.118;11.436;2023-08-30T12:28:39;21.50;99.90
29571;DHT22;16814;52.118;11.436;2023-08-30T12:31:05;21.20;99.90
29571;DHT22;16814;52.118;11.436;2023-08-30T12:33:33;21.30;99.90
29571;DHT22;16814;52.118;11.436;2023-08-30T12:35:59;21.10;99.90
29571;DHT22;16814;52.118;11.436;2023-08-30T12:38:25;21.10;99.90
29571;DHT22;16814;52.118;11.436;2023-08-30T12:40:54;21.20;99.90
29571;DHT22;16814;52.118;11.436;2023-08-30T12:43:20;21.10;99.90
29571;DHT22;16814;52.118;11.436;2023-08-30T12:45:47;21.10;99.90
29571;DHT22;16814;52.118;11.436;2023-08-30T12:48:14;21.10;99.90
29571;DHT22;16814;52.118;11.436;2023-08-30T12:50:41;21.10;99.90
29571;DHT22;16814;52.118;11.436;2023-08-30T12:53:08;21.10;99.90
29571;DHT22;16814;52.118;11.436;2023-08-30T12:55:34;21.10;99.90
29571;DHT22;16814;52.118;11.436;2023-08-30T12:58:01;21.00;99.90
29571;DHT22;16814;52.118;11.436;2023-08-30T13:00:27;21.00;99.90
29571;DHT22;16814;52.118;11.436;2023-08-30T13:02:52;21.00;99.90
29571;DHT22;16814;52.118;11.436;2023-08-30T13:05:18;21.00;99.90
29571;DHT22;16814;52.118;11.436;2023-08-30T13:07:44;20.90;99.90
29571;DHT22;16814;52.118;11.436;2023-08-30T13:10:10;20.90;99.90
29571;DHT22;16814;52.118;11.436;2023-08-30T13:12:37;20.90;99.90
29571;DHT22;16814;52.118;11.436;2023-08-30T13:15:06;21.10;99.90
29571;DHT22;16814;52.118;11.436;2023-08-30T13:17:32;21.20;99.90
29571;DHT22;16814;52.118;11.436;2023-08-30T13:19:57;21.10;99.90
29571;DHT22;16814;52.118;11.436;2023-08-30T13:22:26;21.00;99.90
29571;DHT22;16814;52.118;11.436;2023-08-30T13:24:52;21.20;99.90
29571;DHT22;16814;52.118;11.436;2023-08-30T13:27:18;21.30;99.90
29571;DHT22;16814;52.118;11.436;2023-08-30T13:29:44;21.30;99.90
29571;DHT22;16814;52.118;11.436;2023-08-30T13:32:10;21.20;99.90
29571;DHT22;16814;52.118;11.436;2023-08-30T13:34:35;21.30;99.90
29571;DHT22;16814;52.118;11.436;2023-08-30T13:37:01;21.20;99.90
29571;DHT22;16814;52.118;11.436;2023-08-30T13:39:26;21.10;99.90
29571;DHT22;16814;52.118;11.436;2023-08-30T13:41:52;21.10;99.90
29571;DHT22;16814;52.118;11.436;2023-08-30T13:44:18;21.10;99.90
29571;DHT22;16814;52.118;11.436;2023-08-30T13:46:44;21.10;99.90
29571;DHT22;16814;52.118;11.436;2023-08-30T13:49:09;20.90;99.90
29571;DHT22;16814;52.118;11.436;2023-08-30T13:51:35;20.90;99.90
29571;DHT22;16814;52.118;11.436;2023-08-30T13:54:01;20.70;99.90
29571;DHT22;16814;52.118;11.436;2023-08-30T13:56:27;20.60;99.90
29571;DHT22;16814;52.118;11.436;2023-08-30T13:58:52;20.60;99.90
29571;DHT22;16814;52.118;11.436;2023-08-30T14:01:18;20.60;99.90
29571;DHT22;16814;52.118;11.436;2023-08-30T14:03:44;20.70;99.90
29571;DHT22;16814;52.118;11.436;2023-08-30T14:06:09;20.70;99.90
29571;DHT22;16814;52.118;11.436;2023-08-30T14:08:35;20.70;99.90
29571;DHT22;16814;52.118;11.436;2023-08-30T14:11:01;20.70;99.90
29571;DHT22;16814;52.118;11.436;2023-08-30T14:13:26;20.60;99.90
29571;DHT22;16814;52.118;11.436;2023-08-30T14:15:58;20.60;99.90
29571;DHT22;16814;52.118;11.436;2023-08-30T14:18:23;20.70;99.90
29571;DHT22;16814;52.118;11.436;2023-08-30T14:20:49;20.70;99.90
29571;DHT22;16814;52.118;11.436;2023-08-30T14:23:14;20.60;99.90
29571;DHT22;16814;52.118;11.436;2023-08-30T14:25:40;20.60;99.90
29571;DHT22;16814;52.118;11.436;2023-08-30T14:28:05;20.60;99.90
29571;DHT22;16814;52.118;11.436;2023-08-30T14:30:31;20.60;99.90
29571;DHT22;16814;52.118;11.436;2023-08-30T14:32:57;20.60;99.90
29571;DHT22;16814;52.118;11.436;2023-08-30T14:35:22;20.60;99.90
29571;DHT22;16814;52.118;11.436;2023-08-30T14:37:50;20.50;99.90
29571;DHT22;16814;52.118;11.436;2023-08-30T14:40:16;20.50;99.90
29571;DHT22;16814;52.118;11.436;2023-08-30T14:42:42;20.50;99.90
29571;DHT22;16814;52.118;11.436;2023-08-30T14:45:07;20.40;99.90
29571;DHT22;16814;52.118;11.436;2023-08-30T14:47:34;20.40;99.90
29571;DHT22;16814;52.118;11.436;2023-08-30T14:50:00;20.30;99.90
29571;DHT22;16814;52.118;11.436;2023-08-30T14:52:28;20.20;99.90
29571;DHT22;16814;52.118;11.436;2023-08-30T14:54:54;20.10;99.90
29571;DHT22;16814;52.118;11.436;2023-08-30T14:57:19;20.20;99.90
29571;DHT22;16814;52.118;11.436;2023-08-30T14:59:49;20.30;99.90
29571;DHT22;16814;52.118;11.436;2023-08-30T15:02:14;20.30;99.90
29571;DHT22;16814;52.118;11.436;2023-08-30T15:04:40;20.30;99.90
29571;DHT22;16814;52.118;11.436;2023-08-30T15:07:06;20.40;99.90
29571;DHT22;16814;52.118;11.436;2023-08-30T15:09:32;20.30;99.90
29571;DHT22;16814;52.118;11.436;2023-08-30T15:11:57;20.50;99.90
29571;DHT22;16814;52.118;11.436;2023-08-30T15:14:26;20.60;99.90
29571;DHT22;16814;52.118;11.436;2023-08-30T15:16:51;20.70;99.90
29571;DHT22;16814;52.118;11.436;2023-08-30T15:19:17;20.70;99.90